createdAt,value
2022-11-07T00:00:02.005Z,995.33
2022-11-07T00:05:01.863Z,995.23
2022-11-07T00:10:01.326Z,995.23
2022-11-07T00:20:01.808Z,995.2
2022-11-07T00:25:01.846Z,995.24
2022-11-07T00:30:01.389Z,995.36
2022-11-07T00:35:01.631Z,995.38
2022-11-07T00:40:01.700Z,995.48
2022-11-07T00:45:01.695Z,995.46
2022-11-07T00:50:01.795Z,995.55
2022-11-07T00:55:01.587Z,995.57
2022-11-07T01:00:02.027Z,995.56
2022-11-07T01:05:01.544Z,995.57
2022-11-07T01:10:02.020Z,995.58
2022-11-07T01:15:01.522Z,995.51
2022-11-07T01:20:01.959Z,995.43
2022-11-07T01:25:01.926Z,995.49
2022-11-07T01:30:02.003Z,995.53
2022-11-07T01:35:02.202Z,995.51
2022-11-07T01:40:01.413Z,995.6
2022-11-07T01:45:01.621Z,995.61
2022-11-07T01:50:01.660Z,995.6
2022-11-07T01:55:01.717Z,995.67
2022-11-07T02:00:01.387Z,995.55
2022-11-07T02:05:01.440Z,995.57
2022-11-07T02:10:01.729Z,995.52
2022-11-07T02:15:01.883Z,995.55
2022-11-07T02:20:01.591Z,995.57
2022-11-07T02:25:01.317Z,995.54
2022-11-07T02:30:01.757Z,995.47
2022-11-07T02:35:01.393Z,995.54
2022-11-07T02:40:02.016Z,995.49
2022-11-07T02:45:02.253Z,995.48
2022-11-07T02:50:01.863Z,995.44
2022-11-07T02:55:01.894Z,995.35
2022-11-07T03:00:01.681Z,995.32
2022-11-07T03:05:01.903Z,995.3
2022-11-07T03:10:02.071Z,995.42
2022-11-07T03:15:01.397Z,995.45
2022-11-07T03:20:02.099Z,995.41
2022-11-07T03:25:01.371Z,995.38
2022-11-07T03:30:01.346Z,995.47
2022-11-07T03:35:01.769Z,995.52
2022-11-07T03:40:01.452Z,995.48
2022-11-07T03:45:02.221Z,995.53
2022-11-07T03:50:02.127Z,995.47
2022-11-07T03:55:01.437Z,995.47
2022-11-07T04:00:02.185Z,995.45
2022-11-07T04:05:02.188Z,995.43
2022-11-07T04:10:01.255Z,995.45
2022-11-07T04:15:02.283Z,995.64
2022-11-07T04:20:01.882Z,995.61
2022-11-07T04:25:02.007Z,995.71
2022-11-07T04:30:01.590Z,995.79
2022-11-07T04:35:01.773Z,995.7
2022-11-07T04:40:01.576Z,995.74
2022-11-07T04:45:01.675Z,995.73
2022-11-07T04:50:01.924Z,995.72
2022-11-07T04:55:02.101Z,995.75
2022-11-07T05:00:01.527Z,995.72
2022-11-07T05:05:01.954Z,995.74
2022-11-07T05:10:01.512Z,995.77
2022-11-07T05:15:01.482Z,995.77
2022-11-07T05:20:02.312Z,995.86
2022-11-07T05:25:01.606Z,995.98
2022-11-07T05:30:01.542Z,995.92
2022-11-07T05:35:01.593Z,995.98
2022-11-07T05:40:02.981Z,995.88
2022-11-07T05:45:02.076Z,995.82
2022-11-07T05:50:01.824Z,995.83
2022-11-07T05:55:01.684Z,995.88
2022-11-07T06:00:01.710Z,995.95
2022-11-07T06:05:01.676Z,995.91
2022-11-07T06:10:01.796Z,995.98
2022-11-07T06:15:01.545Z,996.06
2022-11-07T06:20:01.975Z,996.07
2022-11-07T06:25:01.795Z,996.14
2022-11-07T06:30:01.283Z,996.21
2022-11-07T06:35:01.751Z,996.18
2022-11-07T06:40:01.963Z,996.26
2022-11-07T06:45:01.333Z,996.23
2022-11-07T06:50:01.623Z,996.27
2022-11-07T06:55:01.820Z,996.28
2022-11-07T07:00:01.785Z,996.36
2022-11-07T07:05:01.275Z,996.35
2022-11-07T07:10:01.955Z,996.48
2022-11-07T07:15:02.079Z,996.52
2022-11-07T07:20:01.249Z,996.53
2022-11-07T07:25:01.631Z,996.57
2022-11-07T07:30:01.474Z,996.58
2022-11-07T07:35:01.686Z,996.62
2022-11-07T07:40:01.845Z,996.69
2022-11-07T07:45:01.958Z,996.75
2022-11-07T07:50:01.401Z,996.76
2022-11-07T07:55:01.917Z,996.76
2022-11-07T08:00:02.105Z,996.75
2022-11-07T08:05:01.746Z,996.82
2022-11-07T08:10:27.152Z,996.81
2022-11-07T08:15:01.385Z,996.86
2022-11-07T08:20:02.017Z,996.86
2022-11-07T08:25:01.657Z,996.93
2022-11-07T08:30:01.578Z,996.86
2022-11-07T08:35:01.725Z,996.86
2022-11-07T08:40:01.462Z,996.81
2022-11-07T08:45:01.665Z,996.95
2022-11-07T08:50:01.852Z,996.97
2022-11-07T08:55:01.799Z,996.93
2022-11-07T09:00:01.711Z,997.02
2022-11-07T09:05:02.041Z,997.04
2022-11-07T09:10:02.064Z,997.09
2022-11-07T09:15:02.103Z,997.02
2022-11-07T09:20:02.188Z,997.04
2022-11-07T09:25:01.727Z,997.05
2022-11-07T09:30:01.296Z,997.16
2022-11-07T09:35:04.663Z,997.14
2022-11-07T09:40:01.319Z,997.14
2022-11-07T09:45:01.705Z,997.17
2022-11-07T09:50:01.976Z,997.17
2022-11-07T09:55:02.163Z,997.33
2022-11-07T10:00:02.175Z,997.39
2022-11-07T10:05:01.498Z,997.37
2022-11-07T10:10:01.939Z,997.46
2022-11-07T10:15:02.142Z,997.46
2022-11-07T10:20:02.182Z,997.57
2022-11-07T10:25:01.513Z,997.51
2022-11-07T10:30:01.872Z,997.56
2022-11-07T10:35:01.893Z,997.72
2022-11-07T10:40:01.960Z,997.62
2022-11-07T10:45:02.065Z,997.57
2022-11-07T10:50:01.402Z,997.53
2022-11-07T10:55:01.617Z,997.35
2022-11-07T11:00:01.864Z,997.29
2022-11-07T11:05:02.234Z,997.24
2022-11-07T11:10:02.162Z,997.29
2022-11-07T11:15:02.042Z,997.29
2022-11-07T11:20:01.477Z,997.19
2022-11-07T11:25:01.888Z,997.22
2022-11-07T11:30:01.284Z,997.15
2022-11-07T11:35:01.601Z,997.14
2022-11-07T11:40:01.657Z,997.15
2022-11-07T11:45:01.713Z,997.2
2022-11-07T11:50:02.026Z,997.22
2022-11-07T11:55:02.015Z,997.23
2022-11-07T12:00:02.029Z,997.25
2022-11-07T12:05:01.264Z,997.31
2022-11-07T12:10:01.724Z,997.22
2022-11-07T12:15:01.984Z,997.22
2022-11-07T12:20:02.061Z,997.18
2022-11-07T12:25:01.977Z,997.25
2022-11-07T12:30:01.385Z,997.22
2022-11-07T12:35:01.617Z,997.12
2022-11-07T12:40:01.887Z,997.08
2022-11-07T12:45:02.166Z,997.07
2022-11-07T12:50:02.211Z,997.11
2022-11-07T12:55:01.426Z,997.08
2022-11-07T13:00:01.681Z,996.99
2022-11-07T13:05:01.851Z,997.01
2022-11-07T13:10:02.057Z,997.07
2022-11-07T13:15:01.263Z,997.1
2022-11-07T13:20:01.894Z,997.23
2022-11-07T13:25:06.140Z,997.09
2022-11-07T13:30:02.073Z,997.15
2022-11-07T13:35:01.698Z,997.19
2022-11-07T13:40:01.755Z,997.1
2022-11-07T13:45:01.912Z,997.12
2022-11-07T13:50:01.976Z,997.07
2022-11-07T13:55:02.150Z,997.07
2022-11-07T14:00:02.238Z,997.18
2022-11-07T14:05:16.000Z,997.18
2022-11-07T14:10:01.371Z,997.19
2022-11-07T14:15:01.599Z,997.3
2022-11-07T14:20:03.895Z,997.28
2022-11-07T14:25:01.689Z,997.25
2022-11-07T14:30:02.262Z,997.21
2022-11-07T14:35:01.505Z,997.2
2022-11-07T14:40:01.981Z,997.18
2022-11-07T14:45:01.462Z,997.28
2022-11-07T14:50:02.007Z,997.2
2022-11-07T14:55:02.024Z,997.18
2022-11-07T15:00:02.169Z,997.25
2022-11-07T15:05:09.756Z,997.19
2022-11-07T15:10:02.277Z,997.13
2022-11-07T15:15:01.551Z,997.09
2022-11-07T15:20:02.002Z,997.09
2022-11-07T15:25:01.855Z,997.21
2022-11-07T15:30:02.213Z,997.14
2022-11-07T15:35:17.461Z,997.2
2022-11-07T15:40:02.275Z,997.08
2022-11-07T15:45:01.625Z,997.19
2022-11-07T15:50:02.227Z,997.33
2022-11-07T15:55:01.751Z,997.26
2022-11-07T16:00:01.931Z,997.31
2022-11-07T16:05:01.810Z,997.27
2022-11-07T16:10:01.897Z,997.38
2022-11-07T16:15:01.943Z,997.37
2022-11-07T16:20:02.302Z,997.49
2022-11-07T16:25:01.399Z,997.52
2022-11-07T16:30:02.172Z,997.6
2022-11-07T16:35:01.517Z,997.63
2022-11-07T16:40:01.812Z,997.62
2022-11-07T16:45:02.068Z,997.65
2022-11-07T16:50:02.038Z,997.64
2022-11-07T16:55:01.410Z,997.56
2022-11-07T17:00:01.964Z,997.64
2022-11-07T17:05:01.500Z,997.61
2022-11-07T17:10:01.955Z,997.65
2022-11-07T17:15:02.189Z,997.57
2022-11-07T17:20:02.067Z,997.52
2022-11-07T17:25:01.952Z,997.57
2022-11-07T17:30:04.611Z,997.65
2022-11-07T17:35:26.010Z,997.6
2022-11-07T17:40:01.743Z,997.59
2022-11-07T17:45:01.839Z,997.63
2022-11-07T17:50:01.366Z,997.66
2022-11-07T17:55:01.898Z,997.63
2022-11-07T18:00:02.102Z,997.67
2022-11-07T18:05:01.685Z,997.8
2022-11-07T18:10:01.701Z,998.01
2022-11-07T18:15:01.875Z,997.91
2022-11-07T18:20:02.188Z,997.95
2022-11-07T18:25:01.334Z,997.87
2022-11-07T18:30:02.150Z,997.9
2022-11-07T18:35:01.795Z,997.83
2022-11-07T18:40:01.385Z,997.91
2022-11-07T18:45:01.592Z,997.94
2022-11-07T18:50:01.641Z,997.94
2022-11-07T18:55:01.696Z,997.94
2022-11-07T19:00:01.997Z,997.96
2022-11-07T19:05:02.037Z,997.87
2022-11-07T19:10:01.906Z,997.83
2022-11-07T19:15:01.898Z,997.82
2022-11-07T19:20:02.132Z,997.83
2022-11-07T19:25:01.404Z,997.86
2022-11-07T19:30:02.194Z,997.84
2022-11-07T19:35:02.053Z,997.79
2022-11-07T19:40:02.192Z,997.87
2022-11-07T19:45:01.668Z,997.88
2022-11-07T19:50:02.182Z,997.83
2022-11-07T19:55:01.423Z,997.86
2022-11-07T20:00:01.922Z,997.8
2022-11-07T20:05:02.162Z,997.78
2022-11-07T20:10:02.076Z,997.87
2022-11-07T20:15:02.143Z,997.77
2022-11-07T20:20:06.109Z,997.73
2022-11-07T20:25:01.792Z,997.81
2022-11-07T20:30:02.081Z,997.77
2022-11-07T20:35:02.028Z,997.86
2022-11-07T20:40:02.038Z,997.91
2022-11-07T20:45:02.147Z,997.85
2022-11-07T20:50:01.263Z,997.76
2022-11-07T20:55:01.449Z,997.69
2022-11-07T21:00:01.578Z,997.7
2022-11-07T21:05:17.163Z,997.7
2022-11-07T21:10:01.723Z,997.87
2022-11-07T21:15:01.886Z,997.74
2022-11-07T21:20:02.215Z,997.77
2022-11-07T21:25:02.178Z,997.78
2022-11-07T21:30:01.507Z,997.73
2022-11-07T21:35:01.699Z,997.82
2022-11-07T21:40:01.577Z,997.76
2022-11-07T21:45:01.561Z,997.68
2022-11-07T21:50:09.484Z,997.69
2022-11-07T21:55:01.843Z,997.72
2022-11-07T22:00:01.824Z,997.75
2022-11-07T22:05:01.860Z,997.67
2022-11-07T22:10:01.866Z,997.61
2022-11-07T22:15:01.283Z,997.5
2022-11-07T22:20:01.873Z,997.61
2022-11-07T22:25:01.593Z,997.57
2022-11-07T22:30:02.031Z,997.58
2022-11-07T22:35:06.406Z,997.52
2022-11-07T22:40:02.044Z,997.57
2022-11-07T22:45:01.730Z,997.52
2022-11-07T22:50:01.578Z,997.46
2022-11-07T22:55:01.464Z,997.53
2022-11-07T23:00:12.728Z,997.55
2022-11-07T23:05:01.664Z,997.54
2022-11-07T23:10:01.582Z,997.48
2022-11-07T23:15:01.466Z,997.42
2022-11-07T23:20:01.472Z,997.51
2022-11-07T23:25:02.084Z,997.38
2022-11-07T23:30:01.518Z,997.39
2022-11-07T23:35:01.277Z,997.33
2022-11-07T23:40:01.859Z,997.22
2022-11-07T23:45:02.122Z,997.22
2022-11-07T23:50:01.786Z,997.21
2022-11-07T23:55:02.104Z,997.29
